createdAt,value
2018-09-10T00:01:09.932Z,4.33
2018-09-10T00:03:39.226Z,3.55
2018-09-10T00:06:09.993Z,3.17
2018-09-10T00:08:39.467Z,3.92
2018-09-10T00:11:09.457Z,3.45
2018-09-10T00:13:38.866Z,3.30
2018-09-10T00:16:08.385Z,2.83
2018-09-10T00:18:38.005Z,3.37
2018-09-10T00:21:08.413Z,3.37
2018-09-10T00:23:38.997Z,3.20
2018-09-10T00:26:09.317Z,2.77
2018-09-10T00:28:40.339Z,3.10
2018-09-10T00:31:10.393Z,3.20
2018-09-10T00:33:39.769Z,3.98
2018-09-10T00:36:12.492Z,3.10
2018-09-10T00:38:42.350Z,4.28
2018-09-10T00:41:11.696Z,3.42
2018-09-10T00:43:41.729Z,3.05
2018-09-10T00:46:12.423Z,3.30
2018-09-10T00:48:42.019Z,3.22
2018-09-10T00:51:11.520Z,3.70
2018-09-10T00:53:43.477Z,3.40
2018-09-10T00:56:14.219Z,3.37
2018-09-10T00:58:44.006Z,3.50
2018-09-10T01:01:13.709Z,3.52
2018-09-10T01:03:43.767Z,3.50
2018-09-10T01:06:17.951Z,3.67
2018-09-10T01:08:47.379Z,3.83
2018-09-10T01:11:17.093Z,3.80
2018-09-10T01:13:46.905Z,3.70
2018-09-10T01:16:16.357Z,3.20
2018-09-10T01:18:46.918Z,3.50
2018-09-10T01:21:17.334Z,3.35
2018-09-10T01:23:46.808Z,3.12
2018-09-10T01:26:23.921Z,4.00
2018-09-10T01:28:53.406Z,3.35
2018-09-10T01:31:23.532Z,3.80
2018-09-10T01:33:58.522Z,4.22
2018-09-10T01:36:29.677Z,3.60
2018-09-10T01:38:58.919Z,3.17
2018-09-10T01:41:28.531Z,4.35
2018-09-10T01:43:59.443Z,3.65
2018-09-10T01:46:30.151Z,3.35
2018-09-10T01:48:59.641Z,3.60
2018-09-10T01:51:30.420Z,3.52
2018-09-10T01:54:00.145Z,3.15
2018-09-10T01:56:29.947Z,3.47
2018-09-10T01:59:00.043Z,3.30
2018-09-10T02:01:31.725Z,3.22
2018-09-10T02:04:02.248Z,4.03
2018-09-10T02:06:31.885Z,3.20
2018-09-10T02:09:01.728Z,3.00
2018-09-10T02:11:32.382Z,2.58
2018-09-10T02:14:02.796Z,3.85
2018-09-10T02:16:32.598Z,2.87
2018-09-10T02:19:03.210Z,3.45
2018-09-10T02:21:37.239Z,4.03
2018-09-10T02:24:08.884Z,3.30
2018-09-10T02:26:38.121Z,3.60
2018-09-10T02:29:07.715Z,3.72
2018-09-10T02:31:38.474Z,3.77
2018-09-10T02:34:13.525Z,3.90
2018-09-10T02:36:43.987Z,3.40
2018-09-10T02:39:21.120Z,3.00
2018-09-10T02:41:50.856Z,3.10
2018-09-10T02:44:20.503Z,2.85
2018-09-10T02:46:50.966Z,2.98
2018-09-10T02:49:21.382Z,3.22
2018-09-10T02:51:50.926Z,3.47
2018-09-10T02:54:21.824Z,3.50
2018-09-10T02:56:52.524Z,3.22
2018-09-10T02:59:22.048Z,4.00
2018-09-10T03:01:51.521Z,3.58
2018-09-10T03:04:21.516Z,3.33
2018-09-10T03:06:51.343Z,4.00
2018-09-10T03:09:21.487Z,3.42
2018-09-10T03:11:51.420Z,3.60
2018-09-10T03:14:24.914Z,4.40
2018-09-10T03:16:56.500Z,3.67
2018-09-10T03:19:26.730Z,4.25
2018-09-10T03:21:56.236Z,3.80
2018-09-10T03:24:27.709Z,3.67
2018-09-10T03:26:58.121Z,4.08
2018-09-10T03:29:28.052Z,7.70
2018-09-10T03:31:58.304Z,4.47
2018-09-10T03:34:29.035Z,3.27
2018-09-10T03:36:58.190Z,3.80
2018-09-10T03:39:30.091Z,3.35
2018-09-10T03:41:59.593Z,3.37
2018-09-10T03:44:31.151Z,2.62
2018-09-10T03:47:03.580Z,2.98
2018-09-10T03:49:34.694Z,3.15
2018-09-10T03:52:08.109Z,3.15
2018-09-10T03:55:02.510Z,3.08
2018-09-10T03:57:31.850Z,3.20
2018-09-10T04:00:04.937Z,3.62
2018-09-10T04:02:34.852Z,4.10
2018-09-10T04:05:06.794Z,3.20
2018-09-10T04:07:38.533Z,3.75
2018-09-10T04:10:07.867Z,3.08
2018-09-10T04:12:37.125Z,3.12
2018-09-10T04:15:11.303Z,3.62
2018-09-10T04:17:41.376Z,3.35
2018-09-10T04:20:12.286Z,3.10
2018-09-10T04:22:42.432Z,3.65
2018-09-10T04:25:12.707Z,3.30
2018-09-10T04:27:54.487Z,4.10
2018-09-10T04:30:24.259Z,3.30
2018-09-10T04:32:55.297Z,4.00
2018-09-10T04:35:26.899Z,3.22
2018-09-10T04:37:56.277Z,3.95
2018-09-10T04:40:25.529Z,3.17
2018-09-10T04:42:54.736Z,3.98
2018-09-10T04:45:24.554Z,3.50
2018-09-10T04:47:53.826Z,4.55
2018-09-10T04:50:23.691Z,4.12
2018-09-10T04:52:55.356Z,3.98
2018-09-10T04:55:30.647Z,4.08
2018-09-10T04:58:02.712Z,3.60
2018-09-10T05:00:31.851Z,3.60
2018-09-10T05:03:02.041Z,4.53
2018-09-10T05:05:41.797Z,3.95
2018-09-10T05:08:13.490Z,4.50
2018-09-10T05:13:33.952Z,4.45
2018-09-10T05:16:04.342Z,4.42
2018-09-10T05:18:38.031Z,3.80
2018-09-10T05:21:07.214Z,4.65
2018-09-10T05:23:41.511Z,4.17
2018-09-10T05:26:21.037Z,4.47
2018-09-10T05:28:51.300Z,4.15
2018-09-10T05:31:23.732Z,6.25
2018-09-10T06:05:05.794Z,4.17
2018-09-10T06:07:57.584Z,4.25
2018-09-10T08:53:36.590Z,2.60
2018-09-10T08:59:28.481Z,2.60
2018-09-10T10:27:01.317Z,1.50
2018-09-10T10:29:52.583Z,1.80
2018-09-10T10:41:48.697Z,1.93
2018-09-10T10:44:20.859Z,1.50
2018-09-10T10:46:54.190Z,1.70
2018-09-10T10:49:26.374Z,1.50
2018-09-10T10:51:57.057Z,1.50
2018-09-10T10:54:27.459Z,1.87
2018-09-10T10:56:57.411Z,1.60
2018-09-10T10:59:27.637Z,1.07
2018-09-10T11:01:57.380Z,1.57
2018-09-10T11:04:27.301Z,1.87
2018-09-10T11:06:56.624Z,1.27
2018-09-10T11:09:26.288Z,1.80
2018-09-10T11:11:55.739Z,1.43
2018-09-10T11:14:25.124Z,1.10
2018-09-10T11:16:55.695Z,2.10
2018-09-10T11:19:26.135Z,1.23
2018-09-10T11:21:57.853Z,1.60
2018-09-10T11:24:29.002Z,1.33
2018-09-10T11:26:59.547Z,1.73
2018-09-10T11:29:29.320Z,1.30
2018-09-10T11:31:58.968Z,2.10
2018-09-10T11:34:30.529Z,5.10
2018-09-10T11:36:59.709Z,1.77
2018-09-10T11:39:29.204Z,1.60
2018-09-10T11:41:58.881Z,1.13
2018-09-10T11:44:34.357Z,1.57
2018-09-10T11:47:04.723Z,1.80
2018-09-10T11:49:34.919Z,1.53
2018-09-10T11:52:06.076Z,2.73
2018-09-10T11:54:35.517Z,1.50
2018-09-10T11:57:05.759Z,1.57
2018-09-10T11:59:34.997Z,2.60
2018-09-10T12:02:05.408Z,1.83
2018-09-10T12:04:34.660Z,2.00
2018-09-10T12:07:03.907Z,2.03
2018-09-10T12:09:33.108Z,1.83
2018-09-10T12:12:02.942Z,2.13
2018-09-10T12:14:32.225Z,1.73
2018-09-10T12:18:27.423Z,2.10
2018-09-10T12:20:56.626Z,2.30
2018-09-10T12:23:26.665Z,2.43
2018-09-10T12:25:56.961Z,2.20
2018-09-10T12:28:26.144Z,2.47
2018-09-10T12:30:55.617Z,1.97
2018-09-10T12:33:24.901Z,1.57
2018-09-10T12:35:55.190Z,2.00
2018-09-10T12:38:24.432Z,2.20
2018-09-10T12:40:53.614Z,2.17
2018-09-10T12:43:23.814Z,2.20
2018-09-10T12:45:53.252Z,2.53
2018-09-10T12:48:23.223Z,2.10
2018-09-10T12:50:53.444Z,2.47
2018-09-10T12:53:22.900Z,2.30
2018-09-10T12:55:53.774Z,2.20
2018-09-10T12:58:23.141Z,2.10
2018-09-10T13:00:52.514Z,2.20
2018-09-10T13:03:21.711Z,2.37
2018-09-10T13:05:51.027Z,2.53
2018-09-10T13:08:20.326Z,2.13
2018-09-10T13:10:49.596Z,2.00
2018-09-10T13:13:18.804Z,2.03
2018-09-10T13:15:49.049Z,2.50
2018-09-10T13:18:18.240Z,2.03
2018-09-10T13:20:47.433Z,2.10
2018-09-10T13:23:16.649Z,1.83
2018-09-10T13:25:46.037Z,2.20
2018-09-10T13:28:15.254Z,2.53
2018-09-10T13:30:44.498Z,2.53
2018-09-10T13:33:14.537Z,2.50
2018-09-10T13:35:43.893Z,1.80
2018-09-10T13:38:13.746Z,2.10
2018-09-10T13:40:43.006Z,2.30
2018-09-10T13:43:12.281Z,2.30
2018-09-10T13:45:41.808Z,2.00
2018-09-10T13:48:11.654Z,2.10
2018-09-10T13:50:40.853Z,2.60
2018-09-10T13:53:10.126Z,1.57
2018-09-10T13:55:39.550Z,2.20
2018-09-10T13:58:09.044Z,2.00
2018-09-10T14:00:40.054Z,1.93
2018-09-10T14:03:09.303Z,2.37
2018-09-10T14:05:38.626Z,2.47
2018-09-10T14:08:08.322Z,2.37
2018-09-10T14:10:37.566Z,2.70
2018-09-10T14:13:06.843Z,2.17
2018-09-10T14:15:36.148Z,2.67
2018-09-10T14:18:05.436Z,2.70
2018-09-10T14:20:34.776Z,2.07
2018-09-10T14:23:04.041Z,2.13
2018-09-10T14:25:34.438Z,2.00
2018-09-10T14:28:03.682Z,2.43
2018-09-10T14:30:32.961Z,2.07
2018-09-10T14:33:02.171Z,3.20
2018-09-10T14:35:33.642Z,2.13
2018-09-10T14:38:02.870Z,2.33
2018-09-10T14:40:32.086Z,2.47
2018-09-10T14:43:01.395Z,2.40
2018-09-10T14:45:30.706Z,2.23
2018-09-10T14:47:59.905Z,2.00
2018-09-10T14:50:29.181Z,2.77
2018-09-10T14:52:58.301Z,2.20
2018-09-10T14:55:28.712Z,2.00
2018-09-10T14:57:58.208Z,1.73
2018-09-10T15:00:28.196Z,2.30
2018-09-10T15:02:57.713Z,2.07
2018-09-10T15:05:27.689Z,1.77
2018-09-10T15:07:57.751Z,1.87
2018-09-10T15:10:26.972Z,2.23
2018-09-10T15:12:56.153Z,2.10
2018-09-10T15:15:26.815Z,2.40
2018-09-10T15:17:55.973Z,2.30
2018-09-10T15:20:25.221Z,1.80
2018-09-10T15:22:54.680Z,2.13
2018-09-10T15:25:26.449Z,2.37
2018-09-10T15:27:55.644Z,2.20
2018-09-10T15:30:24.881Z,2.67
2018-09-10T15:32:54.049Z,2.00
2018-09-10T15:35:23.730Z,2.33
2018-09-10T15:37:53.520Z,2.33
2018-09-10T15:40:25.141Z,2.00
2018-09-10T15:42:55.417Z,2.10
2018-09-10T15:45:28.656Z,2.53
2018-09-10T15:47:58.832Z,2.07
2018-09-10T15:50:28.310Z,1.90
2018-09-10T15:52:57.506Z,2.70
2018-09-10T15:55:26.867Z,1.80
2018-09-10T15:57:56.052Z,2.67
2018-09-10T16:00:25.273Z,2.20
2018-09-10T16:02:54.432Z,1.97
2018-09-10T16:05:25.747Z,1.97
2018-09-10T16:07:56.236Z,2.50
2018-09-10T16:10:25.522Z,1.90
2018-09-10T16:12:54.972Z,2.00
2018-09-10T16:15:26.051Z,2.23
2018-09-10T16:17:56.728Z,2.23
2018-09-10T16:20:28.087Z,3.00
2018-09-10T16:22:58.573Z,2.80
2018-09-10T16:25:31.004Z,2.67
2018-09-10T16:28:00.493Z,2.13
2018-09-10T16:30:30.163Z,2.20
2018-09-10T16:33:00.345Z,2.50
2018-09-10T16:35:29.900Z,1.80
2018-09-10T16:38:02.411Z,2.40
2018-09-10T16:40:31.926Z,2.10
2018-09-10T16:43:01.534Z,2.23
2018-09-10T16:45:32.999Z,2.33
2018-09-10T16:48:02.783Z,2.77
2018-09-10T16:50:37.541Z,2.30
2018-09-10T16:53:10.832Z,3.20
2018-09-10T16:55:43.823Z,4.33
2018-09-10T16:58:17.574Z,4.57
2018-09-10T17:00:48.183Z,4.63
2018-09-10T17:03:20.416Z,6.05
2018-09-10T17:05:49.957Z,6.70
2018-09-10T17:08:19.236Z,6.20
2018-09-10T17:10:52.750Z,4.07
2018-09-10T17:13:26.130Z,3.03
2018-09-10T17:15:58.763Z,3.33
2018-09-10T17:18:30.134Z,2.63
2018-09-10T17:20:59.376Z,2.47
2018-09-10T17:23:32.411Z,3.00
2018-09-10T17:26:02.398Z,2.90
2018-09-10T17:28:31.759Z,2.40
2018-09-10T17:31:01.566Z,2.40
2018-09-10T17:33:30.949Z,2.73
2018-09-10T17:36:02.181Z,2.43
2018-09-10T17:38:32.170Z,2.57
2018-09-10T17:41:01.635Z,1.93
2018-09-10T17:43:30.843Z,2.17
2018-09-10T17:46:00.547Z,2.33
2018-09-10T17:48:29.973Z,2.80
2018-09-10T17:50:59.225Z,1.90
2018-09-10T17:53:28.424Z,2.50
2018-09-10T17:55:57.862Z,2.87
2018-09-10T17:58:28.144Z,2.70
2018-09-10T18:00:57.717Z,3.53
2018-09-10T18:03:26.972Z,2.27
2018-09-10T18:05:57.199Z,2.60
2018-09-10T18:08:28.004Z,2.80
2018-09-10T18:10:57.402Z,2.37
2018-09-10T18:13:27.564Z,2.33
2018-09-10T18:15:57.535Z,2.60
2018-09-10T18:18:27.073Z,2.27
2018-09-10T18:20:57.126Z,3.40
2018-09-10T18:23:26.408Z,2.83
2018-09-10T18:25:56.003Z,2.73
2018-09-10T18:28:25.846Z,2.93
2018-09-10T18:30:55.886Z,2.33
2018-09-10T18:33:25.706Z,2.10
2018-09-10T18:35:57.656Z,3.00
2018-09-10T18:38:29.766Z,2.43
2018-09-10T18:40:59.219Z,4.00
2018-09-10T18:43:28.597Z,2.92
2018-09-10T18:45:58.915Z,2.02
2018-09-10T18:48:29.364Z,2.95
2018-09-10T18:51:00.226Z,3.08
2018-09-10T18:53:29.973Z,3.25
2018-09-10T18:56:00.412Z,3.00
2018-09-10T18:58:30.694Z,3.17
2018-09-10T19:01:00.529Z,3.15
2018-09-10T19:03:30.638Z,3.20
2018-09-10T19:06:00.367Z,2.87
2018-09-10T19:08:29.683Z,2.67
2018-09-10T19:10:59.861Z,2.70
2018-09-10T19:13:29.687Z,3.27
2018-09-10T19:15:59.169Z,2.50
2018-09-10T19:18:34.516Z,3.35
2018-09-10T19:21:04.332Z,3.27
2018-09-10T19:23:34.697Z,2.65
2018-09-10T19:26:05.437Z,3.25
2018-09-10T19:28:34.833Z,3.02
2018-09-10T19:31:05.113Z,2.60
2018-09-10T19:33:34.459Z,3.05
2018-09-10T19:36:03.693Z,3.30
2018-09-10T19:38:33.017Z,3.45
2018-09-10T19:41:02.665Z,2.55
2018-09-10T19:43:32.275Z,3.58
2018-09-10T19:46:03.197Z,2.25
2018-09-10T19:48:33.401Z,2.70
2018-09-10T19:51:03.442Z,2.77
2018-09-10T19:53:32.620Z,3.30
2018-09-10T19:56:01.894Z,3.00
2018-09-10T19:58:31.186Z,3.50
2018-09-10T20:01:01.605Z,4.35
2018-09-10T20:03:30.892Z,2.95
2018-09-10T20:06:00.243Z,2.92
2018-09-10T20:08:30.090Z,3.27
2018-09-10T20:10:59.762Z,4.30
2018-09-10T20:13:29.287Z,3.27
2018-09-10T20:15:59.593Z,3.42
2018-09-10T20:18:29.073Z,4.42
2018-09-10T20:20:58.257Z,3.12
2018-09-10T20:23:27.665Z,3.27
2018-09-10T20:25:58.151Z,3.00
2018-09-10T20:28:27.364Z,2.92
2018-09-10T20:30:56.852Z,2.90
2018-09-10T20:33:26.646Z,2.70
2018-09-10T20:35:56.190Z,2.95
2018-09-10T20:38:25.430Z,3.42
2018-09-10T20:40:59.387Z,2.90
2018-09-10T20:43:31.298Z,3.15
2018-09-10T20:46:01.573Z,3.17
2018-09-10T20:48:34.636Z,3.70
2018-09-10T20:51:08.205Z,2.60
2018-09-10T20:53:38.507Z,3.15
2018-09-10T20:56:09.182Z,4.00
2018-09-10T20:58:38.444Z,2.75
2018-09-10T21:01:07.706Z,3.10
2018-09-10T21:03:37.974Z,3.67
2018-09-10T21:06:07.994Z,3.55
2018-09-10T21:08:37.902Z,4.42
2018-09-10T21:11:07.294Z,2.62
2018-09-10T21:13:37.987Z,3.35
2018-09-10T21:16:08.261Z,3.00
2018-09-10T21:18:37.693Z,3.02
2018-09-10T21:21:06.898Z,3.37
2018-09-10T21:23:36.663Z,3.65
2018-09-10T21:26:06.012Z,3.50
2018-09-10T21:28:36.036Z,4.20
2018-09-10T21:31:05.485Z,3.55
2018-09-10T21:33:36.050Z,3.60
2018-09-10T21:36:05.418Z,3.20
2018-09-10T21:38:34.724Z,3.47
2018-09-10T21:41:05.009Z,3.42
2018-09-10T21:43:34.421Z,3.50
2018-09-10T21:46:04.064Z,4.28
2018-09-10T21:48:33.311Z,3.58
2018-09-10T21:51:02.648Z,2.70
2018-09-10T21:53:32.331Z,3.70
2018-09-10T21:56:04.110Z,2.98
2018-09-10T21:58:33.424Z,3.17
2018-09-10T22:01:03.035Z,3.35
2018-09-10T22:03:32.226Z,3.25
2018-09-10T22:06:01.461Z,3.08
2018-09-10T22:08:30.646Z,2.83
2018-09-10T22:10:59.861Z,3.50
2018-09-10T22:13:29.596Z,3.20
2018-09-10T22:15:59.039Z,3.42
2018-09-10T22:18:28.217Z,4.33
2018-09-10T22:20:58.668Z,3.30
2018-09-10T22:23:28.978Z,3.33
2018-09-10T22:25:58.263Z,3.22
2018-09-10T22:28:27.487Z,3.45
2018-09-10T22:30:56.713Z,3.70
2018-09-10T22:33:25.978Z,3.35
2018-09-10T22:35:58.881Z,4.05
2018-09-10T22:38:28.680Z,3.70
2018-09-10T22:40:59.393Z,3.70
2018-09-10T22:43:28.624Z,3.35
2018-09-10T22:45:59.071Z,4.55
2018-09-10T22:48:28.288Z,2.98
2018-09-10T22:50:57.502Z,3.40
2018-09-10T22:53:27.697Z,3.33
2018-09-10T22:55:57.085Z,3.25
2018-09-10T22:58:27.326Z,3.55
2018-09-10T23:00:56.564Z,3.20
2018-09-10T23:03:27.157Z,3.20
2018-09-10T23:05:58.562Z,3.67
2018-09-10T23:08:27.797Z,3.30
2018-09-10T23:10:57.024Z,3.77
2018-09-10T23:13:26.881Z,3.60
2018-09-10T23:15:57.046Z,4.10
2018-09-10T23:18:26.511Z,3.95
2018-09-10T23:20:55.729Z,3.83
2018-09-10T23:23:25.831Z,3.45
2018-09-10T23:25:55.254Z,3.75
2018-09-10T23:28:24.506Z,3.72
2018-09-10T23:30:53.989Z,3.50
2018-09-10T23:33:23.218Z,3.83
2018-09-10T23:35:52.546Z,3.40
2018-09-10T23:38:23.230Z,4.17
2018-09-10T23:40:52.455Z,3.00
2018-09-10T23:43:22.417Z,3.77
2018-09-10T23:45:51.800Z,4.00
2018-09-10T23:48:21.078Z,3.33
2018-09-10T23:50:50.694Z,3.67
2018-09-10T23:53:19.914Z,3.15
2018-09-10T23:55:52.749Z,4.95
2018-09-10T23:58:22.987Z,4.10
